createdAt,value
2018-03-08T00:00:38.652Z,4.11
2018-03-08T00:01:38.672Z,4.20
2018-03-08T00:02:38.688Z,4.10
2018-03-08T00:03:38.716Z,4.08
2018-03-08T00:04:38.727Z,4.10
2018-03-08T00:05:38.742Z,4.20
2018-03-08T00:06:38.767Z,4.13
2018-03-08T00:07:38.783Z,4.14
2018-03-08T00:08:38.807Z,4.04
2018-03-08T00:09:38.817Z,4.07
2018-03-08T00:10:38.831Z,4.21
2018-03-08T00:11:38.856Z,4.18
2018-03-08T00:12:38.867Z,4.06
2018-03-08T00:13:38.888Z,4.04
2018-03-08T00:14:38.910Z,4.10
2018-03-08T00:15:38.926Z,4.17
2018-03-08T00:16:38.939Z,4.21
2018-03-08T00:17:38.956Z,4.16
2018-03-08T00:18:38.974Z,4.16
2018-03-08T00:19:38.993Z,4.14
2018-03-08T00:20:39.019Z,4.24
2018-03-08T00:21:39.027Z,4.16
2018-03-08T00:22:39.052Z,4.21
2018-03-08T00:23:39.062Z,4.08
2018-03-08T00:24:39.084Z,4.13
2018-03-08T00:25:39.096Z,4.13
2018-03-08T00:26:39.116Z,4.16
2018-03-08T00:27:39.136Z,4.25
2018-03-08T00:28:39.149Z,4.21
2018-03-08T00:29:39.169Z,4.26
2018-03-08T00:30:39.190Z,4.29
2018-03-08T00:31:39.205Z,4.24
2018-03-08T00:32:39.222Z,4.24
2018-03-08T00:33:39.244Z,4.21
2018-03-08T00:34:39.259Z,4.38
2018-03-08T00:35:39.292Z,4.28
2018-03-08T00:36:39.304Z,4.31
2018-03-08T00:37:39.311Z,4.21
2018-03-08T00:38:39.333Z,4.21
2018-03-08T00:39:39.346Z,4.20
2018-03-08T00:40:39.369Z,4.29
2018-03-08T00:41:39.424Z,4.20
2018-03-08T00:42:39.400Z,4.26
2018-03-08T00:43:39.418Z,4.26
2018-03-08T00:44:39.438Z,4.17
2018-03-08T00:45:39.449Z,4.28
2018-03-08T00:46:39.469Z,4.18
2018-03-08T00:47:39.488Z,4.24
2018-03-08T00:48:39.504Z,4.24
2018-03-08T00:49:39.519Z,4.08
2018-03-08T00:50:39.542Z,4.04
2018-03-08T00:51:39.559Z,4.06
2018-03-08T00:52:39.578Z,4.08
2018-03-08T00:53:39.594Z,4.04
2018-03-08T00:54:39.609Z,4.13
2018-03-08T00:55:39.631Z,4.10
2018-03-08T00:56:39.653Z,4.00
2018-03-08T00:57:39.661Z,4.10
2018-03-08T00:58:39.684Z,4.08
2018-03-08T00:59:39.699Z,4.04
2018-03-08T01:00:39.716Z,4.07
2018-03-08T01:01:39.735Z,4.04
2018-03-08T01:02:39.754Z,3.95
2018-03-08T01:03:39.768Z,3.96
2018-03-08T01:04:39.789Z,3.96
2018-03-08T01:05:39.804Z,3.89
2018-03-08T01:06:39.821Z,3.82
2018-03-08T01:07:39.842Z,3.95
2018-03-08T01:08:39.863Z,3.88
2018-03-08T01:09:39.886Z,3.92
2018-03-08T01:10:39.890Z,3.98
2018-03-08T01:11:39.909Z,3.89
2018-03-08T01:12:39.923Z,3.98
2018-03-08T01:13:39.948Z,3.92
2018-03-08T01:14:39.966Z,3.86
2018-03-08T01:15:39.980Z,3.81
2018-03-08T01:16:39.993Z,3.92
2018-03-08T01:17:40.012Z,3.92
2018-03-08T01:18:40.062Z,3.86
2018-03-08T01:19:40.050Z,3.92
2018-03-08T01:20:40.062Z,3.95
2018-03-08T01:21:40.086Z,3.89
2018-03-08T01:22:40.101Z,3.77
2018-03-08T01:23:40.123Z,3.80
2018-03-08T01:24:40.190Z,3.67
2018-03-08T01:25:40.156Z,3.68
2018-03-08T01:26:40.169Z,3.74
2018-03-08T01:27:40.188Z,3.75
2018-03-08T01:28:40.207Z,3.71
2018-03-08T01:29:40.220Z,3.64
2018-03-08T01:30:40.239Z,3.78
2018-03-08T01:31:40.256Z,3.99
2018-03-08T01:32:40.281Z,3.98
2018-03-08T01:33:40.295Z,3.93
2018-03-08T01:34:40.312Z,3.93
2018-03-08T01:35:40.332Z,3.92
2018-03-08T01:36:40.342Z,3.96
2018-03-08T01:37:40.362Z,3.93
2018-03-08T01:38:40.376Z,3.96
2018-03-08T01:39:40.391Z,3.96
2018-03-08T01:40:40.417Z,3.98
2018-03-08T01:41:40.431Z,3.95
2018-03-08T01:42:40.449Z,3.89
2018-03-08T01:43:40.466Z,3.96
2018-03-08T01:44:40.480Z,3.90
2018-03-08T01:45:40.496Z,3.90
2018-03-08T01:46:40.515Z,3.84
2018-03-08T01:47:40.537Z,3.70
2018-03-08T01:48:40.552Z,3.89
2018-03-08T01:49:40.571Z,3.70
2018-03-08T01:50:40.586Z,3.84
2018-03-08T01:51:40.610Z,3.80
2018-03-08T01:52:40.621Z,3.68
2018-03-08T01:53:40.642Z,3.75
2018-03-08T01:54:40.656Z,3.68
2018-03-08T01:55:40.679Z,3.68
2018-03-08T01:56:40.692Z,3.81
2018-03-08T01:57:40.710Z,3.81
2018-03-08T01:58:40.724Z,3.84
2018-03-08T01:59:40.742Z,3.84
2018-03-08T02:00:40.768Z,3.75
2018-03-08T02:01:40.779Z,3.81
2018-03-08T02:02:40.800Z,3.98
2018-03-08T02:03:40.820Z,3.93
2018-03-08T02:04:40.830Z,3.95
2018-03-08T02:05:40.850Z,4.04
2018-03-08T02:06:40.865Z,3.99
2018-03-08T02:07:40.882Z,3.93
2018-03-08T02:08:40.904Z,4.07
2018-03-08T02:09:40.920Z,3.96
2018-03-08T02:10:40.937Z,4.02
2018-03-08T02:11:40.955Z,4.04
2018-03-08T02:12:40.969Z,4.07
2018-03-08T02:13:40.989Z,3.99
2018-03-08T02:14:41.013Z,4.00
2018-03-08T02:15:41.023Z,3.92
2018-03-08T02:16:41.043Z,4.02
2018-03-08T02:17:41.062Z,3.99
2018-03-08T02:18:41.076Z,4.06
2018-03-08T02:19:41.094Z,4.00
2018-03-08T02:20:41.109Z,3.99
2018-03-08T02:21:41.136Z,3.99
2018-03-08T02:22:41.149Z,4.07
2018-03-08T02:23:41.166Z,4.08
2018-03-08T02:24:41.184Z,4.04
2018-03-08T02:25:41.199Z,4.04
2018-03-08T02:26:41.218Z,3.95
2018-03-08T02:27:41.233Z,3.95
2018-03-08T02:28:41.253Z,3.93
2018-03-08T02:29:41.276Z,3.98
2018-03-08T02:30:41.286Z,3.98
2018-03-08T02:31:41.304Z,4.02
2018-03-08T02:32:41.324Z,4.00
2018-03-08T02:33:41.340Z,4.02
2018-03-08T02:34:41.359Z,4.10
2018-03-08T02:35:41.373Z,4.14
2018-03-08T02:36:41.398Z,4.10
2018-03-08T02:37:41.411Z,4.07
2018-03-08T02:38:41.428Z,4.00
2018-03-08T02:39:41.444Z,4.04
2018-03-08T02:40:41.466Z,3.96
2018-03-08T02:41:41.482Z,4.08
2018-03-08T02:42:41.498Z,3.99
2018-03-08T02:43:41.516Z,4.06
2018-03-08T02:44:41.534Z,3.99
2018-03-08T02:45:41.555Z,3.99
2018-03-08T02:46:41.573Z,3.99
2018-03-08T02:47:41.587Z,4.00
2018-03-08T02:48:41.602Z,4.00
2018-03-08T02:49:41.624Z,3.95
2018-03-08T02:50:41.646Z,3.90
2018-03-08T02:51:41.663Z,4.04
2018-03-08T02:52:41.679Z,3.86
2018-03-08T02:53:41.691Z,3.86
2018-03-08T02:54:41.709Z,3.95
2018-03-08T02:55:41.726Z,3.86
2018-03-08T02:56:41.751Z,3.89
2018-03-08T02:57:41.767Z,3.90
2018-03-08T02:58:41.782Z,3.99
2018-03-08T02:59:41.796Z,3.98
2018-03-08T03:00:41.817Z,4.02
2018-03-08T03:01:41.835Z,3.99
2018-03-08T03:02:41.856Z,3.89
2018-03-08T03:03:41.871Z,3.90
2018-03-08T03:04:41.891Z,3.86
2018-03-08T03:05:41.906Z,3.89
2018-03-08T03:06:41.920Z,3.93
2018-03-08T03:07:41.941Z,3.86
2018-03-08T03:08:42.061Z,3.92
2018-03-08T03:09:41.976Z,3.88
2018-03-08T03:10:41.991Z,3.98
2018-03-08T03:11:42.010Z,3.93
2018-03-08T03:12:42.031Z,3.99
2018-03-08T03:13:42.048Z,3.98
2018-03-08T03:14:42.066Z,3.98
2018-03-08T03:15:42.080Z,3.89
2018-03-08T03:16:42.103Z,4.04
2018-03-08T03:17:42.119Z,3.95
2018-03-08T03:18:42.136Z,3.86
2018-03-08T03:19:42.150Z,3.98
2018-03-08T03:20:42.175Z,3.95
2018-03-08T03:21:42.196Z,3.95
2018-03-08T03:22:42.219Z,3.99
2018-03-08T03:23:42.221Z,4.02
2018-03-08T03:24:42.240Z,4.02
2018-03-08T03:25:42.270Z,4.02
2018-03-08T03:26:42.274Z,4.04
2018-03-08T03:27:42.292Z,4.06
2018-03-08T03:28:42.315Z,3.93
2018-03-08T03:29:42.331Z,3.95
2018-03-08T03:30:42.345Z,3.89
2018-03-08T03:31:42.365Z,3.90
2018-03-08T03:32:42.376Z,3.93
2018-03-08T03:33:42.399Z,3.95
2018-03-08T03:34:42.670Z,3.90
2018-03-08T03:35:42.435Z,3.84
2018-03-08T03:36:42.453Z,3.93
2018-03-08T03:37:42.471Z,3.75
2018-03-08T03:38:42.484Z,3.89
2018-03-08T03:39:42.498Z,3.82
2018-03-08T03:40:42.519Z,3.70
2018-03-08T03:41:42.537Z,3.75
2018-03-08T03:42:42.555Z,3.71
2018-03-08T03:43:42.568Z,3.70
2018-03-08T03:44:42.588Z,3.88
2018-03-08T03:45:42.609Z,3.86
2018-03-08T03:46:42.627Z,3.78
2018-03-08T03:47:42.639Z,3.98
2018-03-08T03:48:42.662Z,3.89
2018-03-08T03:49:42.687Z,3.92
2018-03-08T03:50:42.698Z,3.89
2018-03-08T03:51:42.713Z,3.88
2018-03-08T03:52:42.740Z,3.93
2018-03-08T03:53:42.744Z,3.99
2018-03-08T03:54:42.766Z,4.04
2018-03-08T03:55:42.778Z,3.96
2018-03-08T03:56:42.797Z,3.98
2018-03-08T03:57:42.823Z,3.92
2018-03-08T03:58:42.833Z,3.95
2018-03-08T03:59:42.849Z,3.88
2018-03-08T04:00:42.867Z,3.86
2018-03-08T04:01:42.887Z,3.84
2018-03-08T04:02:42.902Z,3.82
2018-03-08T04:03:42.920Z,3.78
2018-03-08T04:04:42.937Z,3.75
2018-03-08T04:05:42.951Z,3.77
2018-03-08T04:06:42.974Z,3.86
2018-03-08T04:07:42.990Z,3.84
2018-03-08T04:08:43.009Z,3.89
2018-03-08T04:09:43.031Z,3.74
2018-03-08T04:10:43.041Z,3.86
2018-03-08T04:11:43.060Z,3.86
2018-03-08T04:12:43.080Z,3.95
2018-03-08T04:13:43.095Z,3.86
2018-03-08T04:14:43.116Z,3.88
2018-03-08T04:15:43.127Z,3.86
2018-03-08T04:16:43.149Z,3.82
2018-03-08T04:17:43.167Z,3.86
2018-03-08T04:18:43.186Z,3.86
2018-03-08T04:19:43.198Z,3.88
2018-03-08T04:20:43.217Z,3.89
2018-03-08T04:21:43.231Z,3.84
2018-03-08T04:22:43.253Z,3.84
2018-03-08T04:23:43.272Z,3.88
2018-03-08T04:24:43.288Z,3.64
2018-03-08T04:25:43.307Z,3.78
2018-03-08T04:26:43.329Z,3.64
2018-03-08T04:27:43.350Z,3.74
2018-03-08T04:28:43.359Z,3.72
2018-03-08T04:29:43.376Z,3.75
2018-03-08T04:30:43.392Z,3.70
2018-03-08T04:31:43.406Z,3.68
2018-03-08T04:32:43.427Z,3.74
2018-03-08T04:33:43.445Z,3.67
2018-03-08T04:34:43.463Z,3.71
2018-03-08T04:35:43.480Z,3.70
2018-03-08T04:36:43.496Z,3.78
2018-03-08T04:37:43.515Z,3.74
2018-03-08T04:38:43.531Z,3.89
2018-03-08T04:39:43.546Z,3.88
2018-03-08T04:40:43.570Z,3.90
2018-03-08T04:41:43.585Z,3.93
2018-03-08T04:42:43.600Z,3.95
2018-03-08T04:43:43.616Z,3.81
2018-03-08T04:44:43.635Z,3.81
2018-03-08T04:45:43.651Z,3.81
2018-03-08T04:46:43.674Z,3.84
2018-03-08T04:47:43.684Z,3.88
2018-03-08T04:48:43.708Z,3.88
2018-03-08T04:49:43.725Z,3.88
2018-03-08T04:50:43.743Z,3.84
2018-03-08T04:51:43.757Z,3.88
2018-03-08T04:52:43.778Z,3.82
2018-03-08T04:53:43.791Z,3.77
2018-03-08T04:54:43.810Z,3.74
2018-03-08T04:55:43.826Z,3.68
2018-03-08T04:56:43.856Z,3.75
2018-03-08T04:57:43.859Z,3.64
2018-03-08T04:58:43.878Z,3.71
2018-03-08T04:59:43.899Z,3.75
2018-03-08T05:00:43.914Z,3.74
2018-03-08T05:01:43.937Z,3.88
2018-03-08T05:02:43.949Z,3.98
2018-03-08T05:03:43.971Z,3.99
2018-03-08T05:04:43.987Z,4.08
2018-03-08T05:05:43.998Z,4.04
2018-03-08T05:06:44.020Z,4.02
2018-03-08T05:07:44.034Z,4.00
2018-03-08T05:08:44.055Z,4.00
2018-03-08T05:09:44.074Z,3.89
2018-03-08T05:10:44.090Z,3.95
2018-03-08T05:11:44.103Z,3.93
2018-03-08T05:12:44.124Z,3.93
2018-03-08T05:13:44.143Z,3.89
2018-03-08T05:14:44.163Z,3.84
2018-03-08T05:15:44.173Z,3.88
2018-03-08T05:16:44.201Z,3.88
2018-03-08T05:17:44.206Z,3.82
2018-03-08T05:18:44.229Z,3.98
2018-03-08T05:19:44.246Z,3.93
2018-03-08T05:20:44.271Z,3.99
2018-03-08T05:21:44.282Z,3.99
2018-03-08T05:22:44.301Z,3.98
2018-03-08T05:23:44.365Z,3.93
2018-03-08T05:24:44.331Z,3.90
2018-03-08T05:25:44.352Z,3.93
2018-03-08T05:26:44.367Z,3.92
2018-03-08T05:27:44.387Z,3.92
2018-03-08T05:28:44.403Z,3.93
2018-03-08T05:29:44.417Z,3.86
2018-03-08T05:30:44.438Z,3.88
2018-03-08T05:31:44.452Z,3.82
2018-03-08T05:32:44.474Z,3.86
2018-03-08T05:33:44.492Z,3.75
2018-03-08T05:34:44.510Z,3.82
2018-03-08T05:35:44.524Z,3.64
2018-03-08T05:36:44.547Z,3.74
2018-03-08T05:37:44.560Z,3.64
2018-03-08T05:38:44.577Z,3.71
2018-03-08T05:39:44.589Z,3.67
2018-03-08T05:40:44.610Z,3.71
2018-03-08T05:41:44.877Z,3.68
2018-03-08T05:42:44.650Z,3.77
2018-03-08T05:43:44.664Z,3.84
2018-03-08T05:44:44.682Z,3.90
2018-03-08T05:45:44.699Z,3.84
2018-03-08T05:46:44.970Z,3.90
2018-03-08T05:47:44.732Z,3.95
2018-03-08T05:48:44.752Z,3.95
2018-03-08T05:49:44.768Z,3.89
2018-03-08T05:50:44.787Z,3.96
2018-03-08T05:51:44.799Z,3.95
2018-03-08T05:52:44.824Z,3.95
2018-03-08T05:53:44.836Z,3.88
2018-03-08T05:54:44.854Z,3.96
2018-03-08T05:55:44.871Z,3.98
2018-03-08T05:56:44.885Z,3.96
2018-03-08T05:57:44.911Z,4.00
2018-03-08T05:58:44.920Z,3.98
2018-03-08T05:59:44.940Z,4.02
2018-03-08T06:00:44.957Z,3.99
2018-03-08T06:01:44.976Z,3.95
2018-03-08T06:02:44.991Z,3.96
2018-03-08T06:03:45.015Z,3.96
2018-03-08T06:04:45.026Z,4.08
2018-03-08T06:05:45.041Z,4.11
2018-03-08T06:06:45.059Z,4.07
2018-03-08T06:07:45.075Z,4.17
2018-03-08T06:08:45.095Z,4.11
2018-03-08T06:09:45.111Z,4.32
2018-03-08T06:10:45.137Z,4.31
2018-03-08T06:11:45.150Z,4.25
2018-03-08T06:12:45.166Z,4.47
2018-03-08T06:13:45.180Z,4.34
2018-03-08T06:14:45.203Z,4.39
2018-03-08T06:15:45.220Z,4.44
2018-03-08T06:16:45.235Z,4.43
2018-03-08T06:17:45.256Z,4.39
2018-03-08T06:18:45.273Z,4.38
2018-03-08T06:19:45.318Z,4.34
2018-03-08T06:20:45.303Z,4.42
2018-03-08T06:21:45.325Z,4.42
2018-03-08T06:22:45.343Z,4.24
2018-03-08T06:23:45.359Z,4.25
2018-03-08T06:24:45.379Z,4.26
2018-03-08T06:25:45.393Z,4.18
2018-03-08T06:26:45.412Z,4.34
2018-03-08T06:27:45.428Z,4.25
2018-03-08T06:28:45.445Z,4.32
2018-03-08T06:29:45.464Z,4.35
2018-03-08T06:30:45.483Z,4.26
2018-03-08T06:31:45.498Z,4.29
2018-03-08T06:32:45.519Z,4.25
2018-03-08T06:33:45.540Z,4.25
2018-03-08T06:34:45.557Z,4.42
2018-03-08T06:35:45.567Z,4.28
2018-03-08T06:36:45.592Z,4.31
2018-03-08T06:37:45.604Z,4.42
2018-03-08T06:38:45.627Z,4.32
2018-03-08T06:39:45.647Z,4.47
2018-03-08T06:40:45.663Z,4.46
2018-03-08T06:41:45.679Z,4.43
2018-03-08T06:42:45.696Z,4.35
2018-03-08T06:43:45.712Z,4.46
2018-03-08T06:44:45.743Z,4.47
2018-03-08T06:45:45.753Z,4.43
2018-03-08T06:46:45.762Z,4.53
2018-03-08T06:47:45.792Z,4.56
2018-03-08T06:48:45.798Z,4.51
2018-03-08T06:49:45.820Z,4.53
2018-03-08T06:50:45.842Z,4.68
2018-03-08T06:51:45.853Z,4.62
2018-03-08T06:52:45.884Z,4.62
2018-03-08T06:53:45.890Z,4.57
2018-03-08T06:54:45.907Z,4.65
2018-03-08T06:55:45.927Z,4.65
2018-03-08T06:56:45.943Z,4.72
2018-03-08T06:57:45.973Z,4.72
2018-03-08T06:58:45.982Z,4.69
2018-03-08T06:59:45.996Z,4.69
2018-03-08T07:00:46.014Z,4.71
2018-03-08T07:01:46.032Z,4.61
2018-03-08T07:02:46.055Z,4.62
2018-03-08T07:03:46.072Z,4.59
2018-03-08T07:04:46.086Z,4.59
2018-03-08T07:05:46.104Z,4.62
2018-03-08T07:06:46.121Z,4.53
2018-03-08T07:07:46.136Z,4.50
2018-03-08T07:08:46.159Z,4.61
2018-03-08T07:09:46.179Z,4.56
2018-03-08T07:10:46.196Z,4.65
2018-03-08T07:11:46.209Z,4.65
2018-03-08T07:12:46.236Z,4.62
2018-03-08T07:13:46.246Z,4.50
2018-03-08T07:14:46.263Z,4.65
2018-03-08T07:15:46.307Z,4.57
2018-03-08T07:16:46.301Z,4.62
2018-03-08T07:17:46.315Z,4.65
2018-03-08T07:18:46.345Z,4.50
2018-03-08T07:19:46.350Z,4.56
2018-03-08T07:20:46.369Z,4.56
2018-03-08T07:21:46.386Z,4.49
2018-03-08T07:22:46.403Z,4.43
2018-03-08T07:23:46.420Z,4.47
2018-03-08T07:24:46.435Z,4.49
2018-03-08T07:25:46.462Z,4.39
2018-03-08T07:26:46.478Z,4.49
2018-03-08T07:27:46.491Z,4.49
2018-03-08T07:28:46.511Z,4.47
2018-03-08T07:29:46.529Z,4.47
2018-03-08T07:30:46.538Z,4.43
2018-03-08T07:31:46.559Z,4.44
2018-03-08T07:32:46.827Z,4.35
2018-03-08T07:33:46.595Z,4.39
2018-03-08T07:34:46.615Z,4.29
2018-03-08T07:35:46.628Z,4.24
2018-03-08T07:36:46.654Z,4.29
2018-03-08T07:37:46.668Z,4.26
2018-03-08T07:38:46.679Z,4.18
2018-03-08T07:39:46.694Z,4.25
2018-03-08T07:40:46.710Z,4.20
2018-03-08T07:41:46.735Z,4.11
2018-03-08T07:42:46.750Z,4.08
2018-03-08T07:43:46.764Z,4.13
2018-03-08T07:44:46.778Z,4.07
2018-03-08T07:45:46.795Z,4.24
2018-03-08T07:46:46.813Z,4.07
2018-03-08T07:47:46.838Z,4.06
2018-03-08T07:48:46.844Z,4.06
2018-03-08T07:49:46.863Z,4.08
2018-03-08T07:50:46.883Z,4.02
2018-03-08T07:51:46.935Z,4.10
2018-03-08T07:52:46.916Z,4.02
2018-03-08T07:53:46.931Z,4.02
2018-03-08T07:54:46.947Z,3.99
2018-03-08T07:55:46.965Z,4.08
2018-03-08T07:56:46.981Z,4.07
2018-03-08T07:57:46.992Z,4.02
2018-03-08T07:58:47.018Z,3.93
2018-03-08T07:59:47.024Z,3.98
2018-03-08T08:00:47.043Z,3.99
2018-03-08T08:01:47.069Z,3.98
2018-03-08T08:02:47.081Z,4.02
2018-03-08T08:03:47.107Z,3.98
2018-03-08T08:04:47.112Z,3.99
2018-03-08T08:05:47.130Z,3.86
2018-03-08T08:06:47.148Z,3.89
2018-03-08T08:07:47.160Z,3.92
2018-03-08T08:08:47.181Z,3.75
2018-03-08T08:09:47.190Z,3.63
2018-03-08T08:10:47.458Z,3.64
2018-03-08T08:11:47.223Z,3.70
2018-03-08T08:12:47.241Z,3.67
2018-03-08T08:13:47.261Z,3.70
2018-03-08T08:14:47.274Z,3.52
2018-03-08T08:15:47.290Z,3.68
2018-03-08T08:16:47.309Z,3.78
2018-03-08T08:17:47.319Z,3.78
2018-03-08T08:18:47.333Z,3.80
2018-03-08T08:19:47.352Z,3.70
2018-03-08T08:20:47.368Z,3.74
2018-03-08T08:21:47.381Z,3.90
2018-03-08T08:22:47.400Z,3.81
2018-03-08T08:23:47.418Z,3.80
2018-03-08T08:24:47.429Z,3.80
2018-03-08T08:25:47.454Z,3.89
2018-03-08T08:26:47.476Z,4.00
2018-03-08T08:27:47.481Z,4.04
2018-03-08T08:28:47.502Z,4.08
2018-03-08T08:29:47.510Z,4.13
2018-03-08T08:30:47.528Z,4.17
2018-03-08T08:31:47.542Z,4.21
2018-03-08T08:32:47.561Z,4.29
2018-03-08T08:33:47.578Z,4.14
2018-03-08T08:34:47.596Z,4.07
2018-03-08T08:35:47.606Z,4.13
2018-03-08T08:36:47.622Z,4.14
2018-03-08T08:37:47.644Z,4.10
2018-03-08T08:38:47.662Z,4.20
2018-03-08T08:39:47.674Z,4.08
2018-03-08T08:40:47.697Z,3.96
2018-03-08T08:41:47.706Z,4.07
2018-03-08T08:42:47.729Z,4.11
2018-03-08T08:43:47.742Z,4.14
2018-03-08T08:44:47.756Z,4.24
2018-03-08T08:45:47.770Z,4.14
2018-03-08T08:46:47.796Z,4.18
2018-03-08T08:47:47.807Z,4.24
2018-03-08T08:48:47.820Z,4.20
2018-03-08T08:49:47.842Z,4.21
2018-03-08T08:50:47.860Z,4.24
2018-03-08T08:51:47.874Z,4.28
2018-03-08T08:52:47.890Z,4.38
2018-03-08T08:53:47.906Z,4.44
2018-03-08T08:54:47.920Z,4.42
2018-03-08T08:55:47.941Z,4.44
2018-03-08T08:56:47.954Z,4.38
2018-03-08T08:57:47.972Z,4.36
2018-03-08T08:58:47.993Z,4.35
2018-03-08T08:59:48.008Z,4.38
2018-03-08T09:00:48.027Z,4.34
2018-03-08T09:01:48.048Z,4.39
2018-03-08T09:02:48.058Z,4.42
2018-03-08T09:03:48.075Z,4.44
2018-03-08T09:04:48.099Z,4.47
2018-03-08T09:05:48.109Z,4.47
2018-03-08T09:06:48.123Z,4.57
2018-03-08T09:07:48.139Z,4.59
2018-03-08T09:08:48.163Z,4.57
2018-03-08T09:09:48.176Z,4.61
2018-03-08T09:10:48.192Z,4.67
2018-03-08T09:11:48.213Z,4.72
2018-03-08T09:12:48.233Z,4.83
2018-03-08T09:13:48.257Z,4.84
2018-03-08T09:14:48.263Z,4.94
2018-03-08T09:15:48.279Z,4.90
2018-03-08T09:16:48.296Z,4.84
2018-03-08T09:17:48.315Z,4.99
2018-03-08T09:18:48.335Z,5.04
2018-03-08T09:19:48.348Z,5.01
2018-03-08T09:20:48.369Z,5.05
2018-03-08T09:21:48.383Z,5.12
2018-03-08T09:22:48.399Z,5.14
2018-03-08T09:23:48.460Z,5.20
2018-03-08T09:24:48.433Z,5.15
2018-03-08T09:25:48.453Z,5.22
2018-03-08T09:26:48.468Z,5.32
2018-03-08T09:27:48.490Z,5.35
2018-03-08T09:28:48.504Z,5.37
2018-03-08T09:29:48.520Z,5.24
2018-03-08T09:30:48.550Z,5.22
2018-03-08T09:31:48.558Z,5.12
2018-03-08T09:32:48.573Z,5.12
2018-03-08T09:33:48.588Z,5.01
2018-03-08T09:34:48.617Z,5.04
2018-03-08T09:35:48.625Z,5.22
2018-03-08T09:36:48.641Z,5.30
2018-03-08T09:37:48.666Z,5.41
2018-03-08T09:38:48.678Z,5.35
2018-03-08T09:39:48.700Z,5.44
2018-03-08T09:40:48.719Z,5.48
2018-03-08T09:41:48.742Z,5.78
2018-03-08T09:42:48.753Z,5.59
2018-03-08T09:43:48.779Z,5.69
2018-03-08T09:44:48.787Z,5.60
2018-03-08T09:45:48.802Z,5.65
2018-03-08T09:46:48.817Z,5.59
2018-03-08T09:47:48.844Z,5.55
2018-03-08T09:48:48.854Z,5.44
2018-03-08T09:49:48.877Z,5.41
2018-03-08T09:50:48.902Z,5.35
2018-03-08T09:51:48.962Z,5.55
2018-03-08T09:52:48.932Z,5.63
2018-03-08T09:53:49.191Z,5.51
2018-03-08T09:54:48.959Z,5.59
2018-03-08T09:55:48.981Z,5.65
2018-03-08T09:56:49.000Z,5.60
2018-03-08T09:57:49.020Z,5.65
2018-03-08T09:58:49.034Z,5.65
2018-03-08T09:59:49.053Z,5.55
2018-03-08T10:00:49.072Z,5.62
2018-03-08T10:01:49.090Z,5.52
2018-03-08T10:02:49.107Z,5.51
2018-03-08T10:03:49.120Z,5.51
2018-03-08T10:04:49.138Z,5.52
2018-03-08T10:05:49.165Z,5.58
2018-03-08T10:06:49.179Z,5.56
2018-03-08T10:07:49.200Z,5.48
2018-03-08T10:08:49.221Z,5.59
2018-03-08T10:09:49.227Z,5.51
2018-03-08T10:10:49.247Z,5.55
2018-03-08T10:11:49.269Z,5.59
2018-03-08T10:12:49.292Z,5.51
2018-03-08T10:13:49.300Z,5.35
2018-03-08T10:14:49.315Z,5.41
2018-03-08T10:15:49.337Z,5.55
2018-03-08T10:16:49.349Z,5.63
2018-03-08T10:17:49.370Z,5.69
2018-03-08T10:18:49.389Z,5.66
2018-03-08T10:19:49.408Z,5.62
2018-03-08T10:20:49.679Z,5.78
2018-03-08T10:21:49.460Z,5.99
2018-03-08T10:22:49.476Z,6.20
2018-03-08T10:23:49.475Z,6.08
2018-03-08T10:24:49.496Z,6.16
2018-03-08T10:25:49.519Z,6.03
2018-03-08T10:26:49.534Z,6.14
2018-03-08T10:27:49.552Z,6.08
2018-03-08T10:28:49.821Z,6.17
2018-03-08T10:29:49.647Z,6.17
2018-03-08T10:30:49.610Z,6.17
2018-03-08T10:31:49.633Z,6.16
2018-03-08T10:32:49.649Z,6.24
2018-03-08T10:33:49.666Z,6.24
2018-03-08T10:34:49.686Z,6.30
2018-03-08T10:35:49.697Z,6.40
2018-03-08T10:36:49.718Z,6.53
2018-03-08T10:37:49.734Z,6.50
2018-03-08T10:38:49.753Z,6.73
2018-03-08T10:39:49.777Z,6.72
2018-03-08T10:40:49.792Z,6.79
2018-03-08T10:41:49.813Z,6.72
2018-03-08T10:42:49.836Z,6.63
2018-03-08T10:43:49.858Z,6.54
2018-03-08T10:44:49.873Z,6.55
2018-03-08T10:45:49.883Z,6.79
2018-03-08T10:46:49.912Z,6.99
2018-03-08T10:47:49.926Z,7.05
2018-03-08T10:49:49.964Z,7.14
2018-03-08T10:50:49.981Z,7.18
2018-03-08T10:51:50.009Z,7.14
2018-03-08T10:52:50.017Z,7.11
2018-03-08T10:53:50.037Z,7.34
2018-03-08T10:54:50.060Z,7.60
2018-03-08T10:55:50.079Z,7.55
2018-03-08T10:56:50.105Z,7.48
2018-03-08T10:57:50.126Z,7.52
2018-03-08T10:58:50.139Z,7.73
2018-03-08T10:59:50.156Z,7.95
2018-03-08T11:00:50.177Z,7.85
2018-03-08T11:01:50.450Z,8.07
2018-03-08T11:02:50.216Z,8.71
2018-03-08T11:03:50.237Z,8.43
2018-03-08T11:04:50.262Z,8.31
2018-03-08T11:05:50.284Z,8.32
2018-03-08T11:06:50.306Z,8.07
2018-03-08T11:07:50.327Z,7.99
2018-03-08T11:08:50.348Z,9.22
2018-03-08T11:09:50.363Z,10.44
2018-03-08T11:10:50.384Z,10.44
2018-03-08T11:11:50.407Z,10.68
2018-03-08T11:12:50.432Z,11.63
2018-03-08T11:13:50.446Z,10.24
2018-03-08T11:14:50.472Z,11.01
2018-03-08T11:15:50.494Z,12.15
2018-03-08T11:16:50.519Z,12.00
2018-03-08T11:17:50.540Z,12.30
2018-03-08T11:18:50.561Z,13.28
2018-03-08T11:19:50.589Z,12.18
2018-03-08T11:20:50.606Z,11.72
2018-03-08T11:21:50.634Z,10.91
2018-03-08T11:22:50.662Z,10.46
2018-03-08T11:23:50.678Z,10.94
2018-03-08T11:24:50.696Z,10.86
2018-03-08T11:25:50.722Z,10.18
2018-03-08T11:26:50.745Z,9.73
2018-03-08T11:27:50.771Z,10.69
2018-03-08T11:28:50.795Z,11.27
2018-03-08T11:29:50.817Z,10.26
2018-03-08T11:30:50.843Z,10.24
2018-03-08T11:31:50.868Z,10.24
2018-03-08T11:32:50.890Z,10.46
2018-03-08T11:33:50.916Z,9.45
2018-03-08T11:34:50.940Z,9.22
2018-03-08T11:35:50.961Z,9.74
2018-03-08T11:36:50.985Z,9.62
2018-03-08T11:37:51.009Z,9.37
2018-03-08T11:38:51.031Z,9.34
2018-03-08T11:39:51.064Z,9.26
2018-03-08T11:40:51.080Z,11.30
2018-03-08T11:41:51.101Z,11.98
2018-03-08T11:42:51.129Z,11.64
2018-03-08T11:43:51.150Z,12.29
2018-03-08T11:44:51.175Z,12.01
2018-03-08T11:45:51.199Z,12.91
2018-03-08T11:46:51.224Z,13.99
2018-03-08T11:47:51.249Z,11.97
2018-03-08T11:48:51.281Z,10.75
2018-03-08T11:49:51.301Z,10.06
2018-03-08T11:50:51.324Z,9.50
2018-03-08T11:51:51.351Z,9.55
2018-03-08T11:52:51.383Z,9.42
2018-03-08T11:53:51.401Z,9.56
2018-03-08T11:54:51.464Z,10.46
2018-03-08T11:55:51.452Z,10.94
2018-03-08T11:56:51.478Z,10.06
2018-03-08T11:57:51.501Z,9.56
2018-03-08T11:58:51.522Z,9.49
2018-03-08T11:59:51.549Z,9.68
2018-03-08T12:00:51.568Z,12.01
2018-03-08T12:01:51.598Z,12.03
2018-03-08T12:02:51.626Z,13.35
2018-03-08T12:03:51.643Z,14.52
2018-03-08T12:04:51.668Z,15.04
2018-03-08T12:05:51.731Z,15.96
2018-03-08T12:06:51.721Z,16.82
2018-03-08T12:07:51.744Z,15.91
2018-03-08T12:08:51.770Z,15.96
2018-03-08T12:09:51.796Z,14.05
2018-03-08T12:10:51.822Z,13.14
2018-03-08T12:11:51.847Z,14.35
2018-03-08T12:12:51.877Z,15.25
2018-03-08T12:13:51.904Z,13.06
2018-03-08T12:14:51.931Z,12.18
2018-03-08T12:15:51.958Z,14.35
2018-03-08T12:16:52.012Z,16.32
2018-03-08T12:17:52.078Z,17.99
2018-03-08T12:18:52.046Z,18.05
2018-03-08T12:19:52.078Z,15.71
2018-03-08T12:20:52.107Z,14.54
2018-03-08T12:21:52.128Z,14.49
2018-03-08T12:22:52.156Z,15.25
2018-03-08T12:23:52.185Z,16.59
2018-03-08T12:24:52.211Z,17.49
2018-03-08T12:25:52.246Z,18.66
2018-03-08T12:26:52.267Z,18.59
2018-03-08T12:27:52.301Z,18.02
2018-03-08T12:28:52.334Z,19.09
2018-03-08T12:29:52.609Z,18.36
2018-03-08T12:30:52.387Z,19.35
2018-03-08T12:31:52.416Z,20.57
2018-03-08T12:32:52.451Z,21.33
2018-03-08T12:33:52.476Z,21.42
2018-03-08T12:34:52.760Z,21.21
2018-03-08T12:35:52.535Z,21.36
2018-03-08T12:36:52.571Z,20.50
2018-03-08T12:37:52.609Z,19.40
2018-03-08T12:38:52.631Z,19.65
2018-03-08T12:39:52.665Z,20.58
2018-03-08T12:40:52.696Z,20.35
2018-03-08T12:41:52.734Z,21.09
2018-03-08T12:42:52.765Z,21.16
2018-03-08T12:43:52.804Z,21.38
2018-03-08T12:44:52.834Z,21.66
2018-03-08T12:45:52.863Z,22.01
2018-03-08T12:46:52.895Z,22.31
2018-03-08T12:47:52.926Z,21.33
2018-03-08T12:48:52.966Z,20.88
2018-03-08T12:49:52.995Z,20.96
2018-03-08T12:50:53.033Z,18.21
2018-03-08T12:51:53.060Z,19.85
2018-03-08T12:52:53.104Z,19.47
2018-03-08T12:53:53.380Z,19.68
2018-03-08T12:54:53.167Z,18.54
2018-03-08T12:55:53.194Z,19.68
2018-03-08T12:56:53.228Z,21.12
2018-03-08T12:57:53.259Z,22.27
2018-03-08T12:58:53.300Z,22.85
2018-03-08T12:59:53.331Z,21.90
2018-03-08T13:00:53.365Z,22.74
2018-03-08T13:01:53.404Z,23.71
2018-03-08T13:02:53.436Z,23.32
2018-03-08T13:03:53.470Z,19.25
2018-03-08T13:04:53.515Z,19.12
2018-03-08T13:05:53.540Z,19.15
2018-03-08T13:06:53.574Z,18.74
2018-03-08T13:07:53.608Z,17.84
2018-03-08T13:08:53.643Z,18.90
2018-03-08T13:09:53.681Z,19.23
2018-03-08T13:10:53.964Z,20.81
2018-03-08T13:11:53.744Z,22.20
2018-03-08T13:12:53.780Z,22.76
2018-03-08T13:13:53.823Z,21.94
2018-03-08T13:14:53.849Z,21.49
2018-03-08T13:15:53.882Z,22.61